CheckWX is a tool to help pilots better visualize weather data.  It is not intended as a substitute for an official pre-flight weather briefing.

21:18:45 UTC

KDPA TAF
Dupage Airport
Chicago/West Chicago, Illinois, USA
KDPA 232105Z 2321/2418 18006KT P6SM FEW250 FM240000 18005KT P6SM SCT100 BKN200 FM241000 19006KT P6SM -RA SCT035 OVC060

Mar-23@
21:00 UTC

Mar-23 @ 21:00 UTC

Mar-24@
00:00 UTC

Mar-24 @ 00:00 UTC

KDPA 232105Z 2321/2418 18006KT P6SM FEW250
Wind
  • 180° at 6 KTS
Cloud Levels
  • Few at 25,000' AGL

Mar-24@
00:00 UTC

Mar-24 @ 00:00 UTC

Mar-24@
10:00 UTC

Mar-24 @ 10:00 UTC

FM240000 18005KT P6SM SCT100 BKN200

From

From Standard forecast or significant change

Wind
  • 180° at 5 KTS
Cloud Levels
  • Scattered at 10,000' AGL
  • Broken at 20,000' AGL

Mar-24@
10:00 UTC

Mar-24 @ 10:00 UTC

Mar-24@
18:00 UTC

Mar-24 @ 18:00 UTC

FM241000 19006KT P6SM -RA SCT035 OVC060

From

From Standard forecast or significant change

Wind
  • 190° at 6 KTS
Conditions
Light Rain
Cloud Levels
  • Scattered at 3,500' AGL
  • Overcast at 6,000' AGL